Abbott Park, Illinois
Current Conditions -  °F | °C
As of 12:55 AM on Saturday 25 Oct 2014 (Local Time) from KUGN Reporting Station
Broken Clouds Broken Clouds  
Wind Chill: 54°   Ceiling: 4600
Heat Index: 54°   Visibility: 10mi
Dew Point: 48°   Wind: 7mph
Humidity: 80%   Direction: 210°SSW
Pressure: 29.88"   Gusts: NA
Location:  42.3271°N, 87.865°W
Report Text: KUGN 250555Z AUTO 21006KT 10SM FEW020 BKN046 12/09 A2988 RMK AO2 SLP117 60001 T01220089 10139 20094 401670061 58014
Loading
Personal Weather Stations






























Interactive Weather Map New forecast layout! Learn more

10-Day Weather Forecast

Advertisements
Track Severe Weather on mobile